Time;durP1;ratioP1;P1;durP2;ratioP2;P2;SDS_P1;SDS_P2;PMS_P1;PMS_P2;Temp;Humidity;BMP_temperature;BMP_pressure;BME280_temperature;BME280_humidity;BME280_pressure;Samples;Min_cycle;Max_cycle;Signal;HPM_P1;HPM_P2
2021/12/24 00:02:02;;;;;;;16.83;9.50;;;;;;;7.07;84.40;99877.56;4970757;28;20215;-65
2021/12/24 00:04:30;;;;;;;15.70;7.67;;;;;;;6.97;84.96;99878.53;4971081;28;20248;-65
2021/12/24 00:06:58;;;;;;;17.60;9.07;;;;;;;7.03;84.66;99883.25;4972442;28;20275;-65
2021/12/24 00:09:30;;;;;;;15.53;8.60;;;;;;;7.00;84.81;99875.63;4971454;28;20643;-65
2021/12/24 00:12:03;;;;;;;15.93;8.47;;;;;;;6.92;85.19;99881.59;4969793;28;20241;-64
2021/12/24 00:14:32;;;;;;;15.93;7.97;;;;;;;6.97;85.01;99884.63;4970168;28;20252;-65
2021/12/24 00:17:04;;;;;;;15.37;8.60;;;;;;;6.93;85.20;99879.78;4970091;28;20300;-65
2021/12/24 00:19:42;;;;;;;15.50;8.23;;;;;;;6.93;85.52;99885.91;4973504;28;20255;-66
2021/12/24 00:22:38;;;;;;;17.03;8.50;;;;;;;7.01;85.09;99886.03;4974362;28;20296;-65
2021/12/24 00:36:17;;;;;;;14.17;8.23;;;;;;;6.99;86.01;99880.06;4972894;28;20222;-65
2021/12/24 00:38:44;;;;;;;14.37;8.10;;;;;;;7.03;86.11;99880.63;4973869;28;21640;-65
2021/12/24 00:41:16;;;;;;;16.93;8.67;;;;;;;7.02;86.56;99869.25;4957815;28;20193;-66
2021/12/24 00:43:45;;;;;;;18.80;8.30;;;;;;;7.09;86.29;99875.63;4972626;28;20586;-65
2021/12/24 00:46:13;;;;;;;18.67;8.03;;;;;;;7.07;86.52;99867.00;4973403;28;20297;-65
2021/12/24 00:48:41;;;;;;;15.50;8.10;;;;;;;7.13;86.24;99869.06;4972535;28;20223;-64
2021/12/24 00:51:20;;;;;;;14.57;8.03;;;;;;;7.13;86.28;99870.88;4972527;28;20308;-65
2021/12/24 00:56:34;;;;;;;14.47;7.60;;;;;;;7.17;85.99;99861.72;4975021;28;20767;-66
2021/12/24 00:59:03;;;;;;;11.90;7.70;;;;;;;7.19;85.50;99870.34;4974122;28;20248;-65
2021/12/24 01:01:31;;;;;;;15.03;8.07;;;;;;;7.09;85.76;99859.78;4973167;28;20217;-64
2021/12/24 01:03:59;;;;;;;13.37;8.17;;;;;;;7.06;86.12;99860.06;4971326;28;20220;-65
2021/12/24 01:06:26;;;;;;;16.60;9.20;;;;;;;7.03;86.44;99855.09;4975813;28;20308;-66
2021/12/24 01:08:54;;;;;;;14.47;7.67;;;;;;;6.99;86.51;99853.69;4973963;28;20256;-65
2021/12/24 01:11:22;;;;;;;13.03;7.37;;;;;;;6.94;87.16;99858.56;4972030;28;20650;-65
2021/12/24 01:13:50;;;;;;;14.10;7.83;;;;;;;6.95;87.03;99870.75;4972360;28;20231;-64
2021/12/24 01:16:25;;;;;;;15.77;8.57;;;;;;;7.03;86.59;99857.72;4972534;28;20342;-64
2021/12/24 01:19:00;;;;;;;15.03;7.70;;;;;;;7.14;86.39;99857.56;4971358;28;20218;-66
2021/12/24 01:21:45;;;;;;;16.87;7.77;;;;;;;7.13;86.44;99866.44;4973618;28;20214;-66
2021/12/24 01:24:18;;;;;;;12.93;7.57;;;;;;;7.20;85.71;99861.44;4973611;28;20246;-64
2021/12/24 01:26:55;;;;;;;14.40;7.53;;;;;;;7.01;86.76;99854.41;4972230;28;20248;-65
2021/12/24 01:29:47;;;;;;;14.00;7.57;;;;;;;7.20;86.63;99844.78;4972133;28;20242;-66
2021/12/24 01:37:56;;;;;;;11.40;6.40;;;;;;;7.60;85.71;99842.72;4972003;28;20228;-65
2021/12/24 01:40:37;;;;;;;11.63;6.23;;;;;;;7.73;87.01;99837.16;4972607;28;20850;-66
2021/12/24 01:43:04;;;;;;;11.87;6.23;;;;;;;7.79;86.72;99840.03;4973337;28;20260;-64
2021/12/24 01:45:34;;;;;;;10.33;6.53;;;;;;;7.84;86.58;99835.13;4971330;28;20518;-64
2021/12/24 01:48:05;;;;;;;11.40;6.37;;;;;;;7.90;86.69;99844.28;4971942;28;20233;-64
2021/12/24 01:50:35;;;;;;;12.37;6.67;;;;;;;7.94;86.30;99838.56;4971207;28;20228;-64
2021/12/24 01:53:05;;;;;;;12.87;7.00;;;;;;;7.99;86.01;99829.38;4973612;28;20705;-65
2021/12/24 01:55:34;;;;;;;12.43;6.87;;;;;;;8.02;85.41;99829.06;4973641;28;20312;-65
2021/12/24 01:58:02;;;;;;;13.43;6.73;;;;;;;8.04;85.78;99819.19;4973458;28;20278;-63
2021/12/24 02:00:36;;;;;;;12.60;6.70;;;;;;;8.05;85.66;99821.69;4970309;28;20277;-64
2021/12/24 02:03:06;;;;;;;11.33;6.23;;;;;;;8.11;85.30;99820.25;4969861;28;20246;-65
2021/12/24 02:05:35;;;;;;;10.63;6.77;;;;;;;8.14;85.37;99804.13;4969644;28;20215;-65
2021/12/24 02:08:04;;;;;;;10.77;6.33;;;;;;;8.12;85.21;99806.09;4955944;28;20317;-64
2021/12/24 02:10:32;;;;;;;11.30;6.53;;;;;;;8.11;85.17;99805.25;4971183;28;20252;-65
2021/12/24 02:13:00;;;;;;;10.77;6.33;;;;;;;8.14;85.67;99804.97;4970443;28;20704;-65
2021/12/24 02:15:38;;;;;;;11.77;7.10;;;;;;;8.17;84.99;99799.41;4967105;28;20217;-65
2021/12/24 02:29:31;;;;;;;13.10;7.23;;;;;;;8.23;85.68;99750.41;4949750;28;20240;-65
2021/12/24 02:31:58;;;;;;;12.73;6.73;;;;;;;8.21;85.98;99758.50;4969306;28;20219;-65
2021/12/24 02:34:26;;;;;;;11.27;6.77;;;;;;;8.23;86.66;99756.53;4969937;28;20580;-65
2021/12/24 02:36:55;;;;;;;10.93;6.80;;;;;;;8.25;86.46;99746.66;4970761;28;20225;-64
2021/12/24 02:39:23;;;;;;;10.53;6.40;;;;;;;8.32;86.29;99738.97;4971531;28;21595;-65
2021/12/24 02:41:51;;;;;;;12.17;5.87;;;;;;;8.33;86.54;99730.06;4972027;28;20293;-64
2021/12/24 02:44:19;;;;;;;15.60;6.33;;;;;;;8.38;87.15;99734.91;4970108;28;20242;-64
2021/12/24 02:47:08;;;;;;;10.13;6.20;;;;;;;8.39;87.54;99739.19;4964340;28;20218;-64
2021/12/24 02:55:11;;;;;;;10.47;6.00;;;;;;;8.39;88.27;99755.88;4972873;28;20207;-65
2021/12/24 02:57:40;;;;;;;13.17;5.87;;;;;;;8.37;89.11;99746.44;4971286;28;20378;-65
2021/12/24 03:00:15;;;;;;;11.87;6.20;;;;;;;8.36;89.88;99742.97;4971051;28;20207;-65
2021/12/24 03:02:44;;;;;;;11.27;6.53;;;;;;;8.35;90.20;99749.25;4970866;28;20723;-65
2021/12/24 03:05:18;;;;;;;10.60;6.17;;;;;;;8.32;91.00;99760.13;4970115;28;20218;-65
2021/12/24 03:07:48;;;;;;;13.97;6.07;;;;;;;8.32;90.91;99757.47;4970768;28;20210;-65
2021/12/24 03:10:18;;;;;;;10.47;6.00;;;;;;;8.33;91.09;99738.00;4956572;28;20724;-63
2021/12/24 03:12:48;;;;;;;10.30;6.30;;;;;;;8.30;91.71;99736.44;4968918;28;20211;-65
2021/12/24 03:15:17;;;;;;;10.67;5.63;;;;;;;8.32;92.07;99744.25;4968714;28;20210;-64
2021/12/24 03:17:50;;;;;;;11.57;6.50;;;;;;;8.38;91.32;99748.09;4970331;28;20250;-65
2021/12/24 03:20:19;;;;;;;9.60;6.13;;;;;;;8.41;91.21;99742.53;4970290;28;20243;-65
2021/12/24 03:23:03;;;;;;;12.00;6.83;;;;;;;8.34;92.32;99730.91;4969748;28;20575;-65
2021/12/24 03:25:31;;;;;;;14.30;7.57;;;;;;;8.38;92.46;99738.38;4955203;28;20246;-65
2021/12/24 03:27:59;;;;;;;10.63;6.27;;;;;;;8.38;91.80;99735.72;4971295;28;20672;-65
2021/12/24 03:30:28;;;;;;;15.80;6.83;;;;;;;8.38;92.56;99732.25;4970330;28;20231;-65
2021/12/24 03:32:56;;;;;;;15.00;7.37;;;;;;;8.37;92.93;99725.31;4970228;28;20217;-65
2021/12/24 03:35:23;;;;;;;13.17;6.87;;;;;;;8.41;92.55;99726.69;4974748;28;20265;-65
2021/12/24 03:37:53;;;;;;;13.00;7.07;;;;;;;8.31;93.83;99721.47;4954776;28;20211;-64
2021/12/24 03:40:21;;;;;;;14.83;7.63;;;;;;;8.37;93.51;99714.75;4971319;28;20783;-65
2021/12/24 03:42:49;;;;;;;13.70;7.17;;;;;;;8.32;93.86;99706.47;4969587;28;20308;-63
2021/12/24 03:45:26;;;;;;;15.63;7.90;;;;;;;8.29;93.98;99703.09;4970709;28;20664;-65
2021/12/24 03:47:58;;;;;;;13.77;7.87;;;;;;;8.25;94.83;99708.84;4969742;28;20272;-64
2021/12/24 03:50:40;;;;;;;13.47;6.93;;;;;;;8.29;94.72;99704.91;4955929;28;20310;-64
2021/12/24 03:55:51;;;;;;;15.60;8.30;;;;;;;8.33;94.17;99703.66;4967534;28;20221;-64
2021/12/24 03:58:19;;;;;;;16.97;8.77;;;;;;;8.31;94.90;99710.91;4975182;28;20211;-65
2021/12/24 04:00:47;;;;;;;17.90;8.93;;;;;;;8.29;95.16;99707.53;4973631;28;20450;-65
2021/12/24 04:03:15;;;;;;;18.23;8.57;;;;;;;8.33;94.99;99698.38;4974377;28;20305;-65
2021/12/24 04:05:42;;;;;;;16.43;8.70;;;;;;;8.33;94.76;99705.47;4975125;28;20667;-65
2021/12/24 04:08:11;;;;;;;15.23;8.20;;;;;;;8.38;94.07;99716.41;4975237;28;20298;-65
2021/12/24 04:10:40;;;;;;;16.37;8.57;;;;;;;8.36;94.43;99711.25;4971948;28;20234;-65
2021/12/24 04:13:09;;;;;;;16.77;9.30;;;;;;;8.36;94.69;99713.91;4971969;28;20207;-65
2021/12/24 04:15:38;;;;;;;16.40;8.73;;;;;;;8.33;94.15;99703.66;4973825;28;20225;-65
2021/12/24 04:18:14;;;;;;;21.17;9.53;;;;;;;8.37;94.05;99699.72;4972333;28;20293;-65
2021/12/24 04:26:29;;;;;;;17.90;9.00;;;;;;;8.36;93.81;99681.38;4931328;29;20338;-65
2021/12/24 04:28:56;;;;;;;18.40;8.97;;;;;;;8.29;94.58;99686.41;4932030;29;20626;-65
2021/12/24 04:31:29;;;;;;;19.67;8.83;;;;;;;8.23;95.26;99692.31;4953205;28;20241;-65
2021/12/24 04:34:02;;;;;;;16.60;8.70;;;;;;;8.26;94.75;99692.03;4979550;28;20225;-65
2021/12/24 04:36:45;;;;;;;19.60;9.53;;;;;;;8.28;94.14;99695.31;4973739;28;20299;-65
2021/12/24 04:39:38;;;;;;;15.50;8.67;;;;;;;8.34;94.08;99705.34;4974166;28;20211;-65
2021/12/24 05:01:48;;;;;;;17.50;10.30;;;;;;;8.30;94.99;99710.03;4935908;28;20431;-63
2021/12/24 05:04:24;;;;;;;18.07;10.43;;;;;;;8.37;93.88;99699.72;4973904;28;20562;-65
2021/12/24 05:07:02;;;;;;;19.23;9.93;;;;;;;8.40;93.68;99699.44;4972148;28;20306;-65
2021/12/24 05:09:31;;;;;;;19.70;10.70;;;;;;;8.38;93.91;99711.94;4971158;28;20237;-64
2021/12/24 05:12:00;;;;;;;24.37;10.57;;;;;;;8.42;93.68;99713.31;4970419;28;20304;-64
2021/12/24 05:14:31;;;;;;;22.63;11.00;;;;;;;8.47;93.33;99710.19;4972189;28;20217;-64
2021/12/24 05:17:17;;;;;;;18.87;10.40;;;;;;;8.41;93.75;99705.53;4972373;28;20223;-64
2021/12/24 05:22:32;;;;;;;19.03;11.50;;;;;;;8.47;92.93;99703.09;4971475;28;20668;-65
2021/12/24 05:25:01;;;;;;;21.07;11.53;;;;;;;8.49;92.91;99708.25;4972910;28;20297;-65
2021/12/24 05:27:30;;;;;;;19.53;10.93;;;;;;;8.46;93.45;99704.09;4970914;28;20217;-65
2021/12/24 05:29:58;;;;;;;20.90;11.23;;;;;;;8.52;91.80;99711.44;4971833;28;20227;-65
2021/12/24 05:32:26;;;;;;;24.70;11.57;;;;;;;8.49;92.77;99709.06;4972513;28;20218;-65
2021/12/24 05:34:54;;;;;;;18.10;10.87;;;;;;;8.46;91.72;99709.38;4979343;28;20301;-65
2021/12/24 05:37:21;;;;;;;24.17;11.33;;;;;;;8.45;92.48;99713.00;4972525;28;20257;-65
2021/12/24 05:39:49;;;;;;;22.97;12.03;;;;;;;8.38;92.85;99711.13;4972096;28;20680;-65
2021/12/24 05:42:17;;;;;;;25.30;12.63;;;;;;;8.38;92.66;99724.31;4970312;28;20211;-65
2021/12/24 05:44:46;;;;;;;22.33;11.70;;;;;;;8.31;93.92;99737.31;4972759;28;20239;-64
2021/12/24 05:47:14;;;;;;;21.60;11.27;;;;;;;8.44;92.00;99735.13;4972585;28;20232;-65
2021/12/24 05:49:42;;;;;;;22.70;11.70;;;;;;;8.41;91.99;99722.22;4971400;28;20325;-65
2021/12/24 05:52:10;;;;;;;20.20;11.60;;;;;;;8.43;90.40;99730.00;4970557;28;20215;-65
2021/12/24 05:54:38;;;;;;;23.57;12.07;;;;;;;8.31;93.43;99718.81;4970546;28;20269;-65
2021/12/24 05:57:07;;;;;;;24.17;12.30;;;;;;;8.32;93.82;99723.13;4973618;28;20303;-65
2021/12/24 05:59:34;;;;;;;25.60;12.67;;;;;;;8.24;94.04;99717.75;4972049;28;20212;-65
2021/12/24 06:02:04;;;;;;;24.63;11.87;;;;;;;8.38;92.49;99717.22;4970615;28;20286;-65
2021/12/24 06:04:32;;;;;;;25.30;11.90;;;;;;;8.38;92.24;99726.97;4971234;28;20246;-65
2021/12/24 06:07:00;;;;;;;21.57;11.90;;;;;;;8.39;92.43;99724.19;4971492;28;20250;-65
2021/12/24 06:09:28;;;;;;;22.63;12.27;;;;;;;8.46;91.12;99725.22;4972846;28;20226;-65
2021/12/24 06:11:57;;;;;;;20.43;11.73;;;;;;;8.51;90.97;99730.91;4970975;28;20210;-65
2021/12/24 06:14:25;;;;;;;22.00;11.97;;;;;;;8.42;92.18;99721.25;4970594;28;20242;-65
2021/12/24 06:17:01;;;;;;;24.87;12.93;;;;;;;8.37;93.33;99720.03;4969947;28;20223;-65
2021/12/24 06:19:35;;;;;;;21.57;12.40;;;;;;;8.42;93.03;99734.44;4971025;28;20250;-65
2021/12/24 06:22:03;;;;;;;24.40;12.43;;;;;;;8.46;93.09;99737.59;4971955;28;20691;-65
2021/12/24 06:24:30;;;;;;;24.80;12.07;;;;;;;8.48;92.73;99741.75;4971804;28;20313;-65
2021/12/24 06:26:59;;;;;;;23.63;12.50;;;;;;;8.59;90.80;99736.25;4970224;28;20245;-64
2021/12/24 06:29:26;;;;;;;25.60;13.03;;;;;;;8.55;91.80;99742.81;4969693;28;20289;-65
2021/12/24 06:31:54;;;;;;;21.93;11.63;;;;;;;8.57;92.43;99742.66;4968877;28;20689;-65
2021/12/24 06:34:22;;;;;;;22.53;13.00;;;;;;;8.55;93.92;99747.25;4971711;28;20273;-65
2021/12/24 06:36:53;;;;;;;23.73;12.47;;;;;;;8.64;91.07;99743.69;4971723;28;20707;-66
2021/12/24 06:39:21;;;;;;;27.77;12.97;;;;;;;8.60;92.80;99753.78;4970429;28;20732;-65
2021/12/24 06:41:48;;;;;;;24.73;11.97;;;;;;;8.69;91.46;99762.59;4970232;28;20207;-66
2021/12/24 06:44:16;;;;;;;22.37;13.00;;;;;;;8.71;90.34;99765.88;4970080;28;20294;-65
2021/12/24 06:46:44;;;;;;;23.73;12.73;;;;;;;8.76;89.79;99774.19;4970820;28;20210;-65
2021/12/24 06:49:13;;;;;;;27.53;11.60;;;;;;;8.77;88.53;99760.00;4971346;28;20212;-65
2021/12/24 06:51:41;;;;;;;22.97;12.87;;;;;;;8.80;89.00;99764.97;4969602;28;20317;-66
2021/12/24 06:54:11;;;;;;;28.80;12.63;;;;;;;8.74;89.51;99772.69;4968941;28;20459;-64
2021/12/24 06:56:42;;;;;;;23.20;12.47;;;;;;;8.77;89.71;99780.31;4970619;28;20575;-65
2021/12/24 06:59:10;;;;;;;22.23;11.63;;;;;;;8.75;89.62;99772.53;4971840;28;20227;-66
2021/12/24 07:01:38;;;;;;;25.27;12.37;;;;;;;8.79;89.40;99775.72;4970967;28;20203;-65
2021/12/24 07:04:06;;;;;;;21.00;10.00;;;;;;;8.80;89.80;99774.72;4969625;28;20679;-65
2021/12/24 07:06:35;;;;;;;21.73;11.07;;;;;;;8.81;88.42;99766.63;4970450;28;20226;-65
2021/12/24 07:09:03;;;;;;;23.30;12.57;;;;;;;8.82;89.58;99770.09;4969508;28;20229;-65
2021/12/24 07:11:32;;;;;;;20.73;11.07;;;;;;;8.83;88.43;99769.97;4971314;28;20229;-65
2021/12/24 07:14:00;;;;;;;23.77;12.27;;;;;;;8.77;89.08;99765.28;4968844;28;20306;-65
2021/12/24 07:16:28;;;;;;;19.63;10.90;;;;;;;8.84;88.86;99765.50;4970252;28;20218;-65
2021/12/24 07:18:55;;;;;;;20.57;11.03;;;;;;;8.84;89.19;99765.50;4970147;28;20210;-65
2021/12/24 07:21:23;;;;;;;20.00;10.57;;;;;;;8.74;90.54;99754.19;4970350;28;20207;-65
2021/12/24 07:23:51;;;;;;;22.00;10.83;;;;;;;8.70;90.81;99751.03;4965996;28;20761;-65
2021/12/24 07:26:19;;;;;;;19.00;11.57;;;;;;;8.65;91.48;99756.78;4969250;28;20330;-65
2021/12/24 07:28:48;;;;;;;23.97;11.93;;;;;;;8.68;91.71;99759.13;4970972;28;20618;-64
2021/12/24 07:31:16;;;;;;;26.37;11.57;;;;;;;8.60;92.62;99748.47;4968378;28;20298;-64
2021/12/24 07:33:44;;;;;;;20.60;10.77;;;;;;;8.65;92.19;99753.28;4969464;28;20225;-65
2021/12/24 07:36:11;;;;;;;22.03;10.30;;;;;;;8.63;92.16;99760.53;4972078;28;20247;-64
2021/12/24 07:38:39;;;;;;;20.97;11.17;;;;;;;8.74;90.62;99759.47;4971271;28;20219;-65
2021/12/24 07:41:07;;;;;;;20.93;11.93;;;;;;;8.70;91.92;99763.41;4968220;28;20217;-65
2021/12/24 07:43:35;;;;;;;19.33;11.50;;;;;;;8.67;92.65;99760.09;4968633;28;20222;-65
2021/12/24 07:46:04;;;;;;;24.97;10.90;;;;;;;8.79;90.46;99758.06;4971122;28;20238;-65
2021/12/24 07:48:35;;;;;;;21.27;11.20;;;;;;;8.78;91.20;99766.13;4971224;28;20629;-64
2021/12/24 07:53:47;;;;;;;22.57;11.87;;;;;;;8.80;90.62;99764.13;4969840;28;20214;-65
2021/12/24 07:56:15;;;;;;;26.30;11.77;;;;;;;8.72;91.73;99753.50;4969303;28;20277;-66
2021/12/24 07:58:43;;;;;;;22.70;11.37;;;;;;;8.83;90.33;99754.09;4969699;28;20298;-64
2021/12/24 08:01:13;;;;;;;20.20;10.53;;;;;;;8.85;89.73;99752.13;4957795;28;20230;-65
2021/12/24 08:03:41;;;;;;;20.80;11.10;;;;;;;8.84;90.16;99744.34;4969814;28;20218;-65
2021/12/24 08:06:09;;;;;;;20.37;10.73;;;;;;;8.85;90.21;99749.50;4969023;28;20237;-65
2021/12/24 08:08:37;;;;;;;20.57;10.37;;;;;;;8.77;90.87;99751.25;4968125;28;20692;-63
2021/12/24 08:11:05;;;;;;;19.13;10.60;;;;;;;8.73;91.27;99748.06;4970331;28;20593;-64
2021/12/24 08:13:32;;;;;;;20.17;10.30;;;;;;;8.72;91.13;99750.84;4970275;28;20639;-64
2021/12/24 08:16:00;;;;;;;22.07;11.00;;;;;;;8.72;91.48;99750.84;4972333;28;20242;-64
2021/12/24 08:18:30;;;;;;;21.17;10.70;;;;;;;8.62;92.24;99754.41;4960448;28;20219;-64
2021/12/24 08:20:58;;;;;;;17.87;10.20;;;;;;;8.72;91.51;99750.84;4961954;28;20302;-65
2021/12/24 08:23:26;;;;;;;18.87;10.90;;;;;;;8.62;92.49;99751.78;4961985;28;20246;-65
2021/12/24 08:25:58;;;;;;;23.43;10.17;;;;;;;8.74;92.00;99756.81;4970098;28;20590;-64
2021/12/24 08:28:26;;;;;;;18.70;10.20;;;;;;;8.79;90.78;99759.84;4968963;28;20306;-65
2021/12/24 08:30:54;;;;;;;19.73;10.23;;;;;;;8.82;90.61;99754.25;4960504;28;20215;-65
2021/12/24 08:33:23;;;;;;;27.10;10.97;;;;;;;8.70;92.09;99747.56;4960375;28;20211;-64
2021/12/24 08:35:52;;;;;;;20.27;10.40;;;;;;;8.71;92.43;99755.31;4970021;28;20211;-65
2021/12/24 08:38:20;;;;;;;18.47;10.67;;;;;;;8.79;91.52;99757.22;4969609;28;20521;-65
2021/12/24 08:40:48;;;;;;;23.97;11.20;;;;;;;8.76;91.78;99752.22;4971923;28;20238;-65
2021/12/24 08:43:16;;;;;;;22.17;10.07;;;;;;;8.75;92.03;99747.91;4971946;28;20215;-65
2021/12/24 08:45:44;;;;;;;18.17;10.57;;;;;;;8.80;91.23;99753.56;4972393;28;20665;-66
2021/12/24 08:48:12;;;;;;;20.53;10.03;;;;;;;8.77;91.96;99745.97;4970969;28;20289;-66
2021/12/24 08:50:39;;;;;;;20.50;10.10;;;;;;;8.80;92.04;99737.69;4973860;28;20211;-64
2021/12/24 08:53:09;;;;;;;19.70;10.17;;;;;;;8.82;92.04;99741.84;4973527;28;20325;-65
2021/12/24 08:55:36;;;;;;;20.43;10.57;;;;;;;8.81;92.33;99745.47;4974670;28;20665;-66
2021/12/24 08:58:04;;;;;;;19.10;10.03;;;;;;;8.87;91.69;99749.34;4972652;28;20302;-65
2021/12/24 09:00:34;;;;;;;20.87;9.77;;;;;;;8.85;91.67;99757.44;4973640;28;20708;-65
2021/12/24 09:03:03;;;;;;;17.23;10.37;;;;;;;8.88;91.36;99746.53;4956319;28;20327;-64
2021/12/24 09:05:31;;;;;;;24.40;10.60;;;;;;;8.79;92.72;99741.34;4973694;28;20210;-64
2021/12/24 09:07:59;;;;;;;19.63;9.50;;;;;;;8.97;91.23;99736.84;4970717;28;20257;-66
2021/12/24 09:10:28;;;;;;;20.90;9.93;;;;;;;8.92;91.61;99736.47;4973258;28;20266;-66
2021/12/24 09:12:56;;;;;;;20.17;10.47;;;;;;;8.90;91.48;99739.25;4970738;28;20964;-65
2021/12/24 09:15:29;;;;;;;18.17;9.83;;;;;;;9.05;90.41;99729.81;4971662;28;20302;-64
2021/12/24 09:17:58;;;;;;;18.13;9.10;;;;;;;9.11;90.10;99725.69;4973848;28;20249;-65
2021/12/24 09:20:31;;;;;;;23.00;9.93;;;;;;;9.07;90.64;99725.16;4972487;28;20218;-66
2021/12/24 09:23:00;;;;;;;19.33;10.83;;;;;;;9.09;90.55;99727.66;4972028;28;20213;-64
2021/12/24 09:25:30;;;;;;;16.10;9.30;;;;;;;9.09;90.63;99724.19;4973180;28;20250;-66
2021/12/24 09:27:59;;;;;;;19.87;9.43;;;;;;;9.08;90.37;99731.28;4975002;28;20218;-65
2021/12/24 09:30:29;;;;;;;19.27;9.67;;;;;;;9.21;89.63;99737.00;4976068;28;20206;-64
2021/12/24 09:32:56;;;;;;;16.43;9.10;;;;;;;9.16;89.50;99733.97;4971004;28;20230;-64
2021/12/24 09:35:26;;;;;;;16.10;9.40;;;;;;;9.21;89.68;99731.69;4971128;28;20215;-66
2021/12/24 09:37:55;;;;;;;18.47;9.13;;;;;;;9.15;90.62;99734.97;4971876;28;20215;-65
2021/12/24 09:40:23;;;;;;;21.33;9.90;;;;;;;9.18;90.17;99739.13;4972519;28;20270;-65
2021/12/24 09:42:53;;;;;;;16.73;9.20;;;;;;;9.30;88.74;99736.06;4971842;28;20324;-65
2021/12/24 09:45:21;;;;;;;19.93;9.37;;;;;;;9.25;89.59;99740.97;4972093;28;20220;-65
2021/12/24 09:47:49;;;;;;;19.83;9.53;;;;;;;9.20;89.97;99745.91;4972655;28;20225;-65
2021/12/24 09:50:20;;;;;;;16.47;9.43;;;;;;;9.26;89.13;99739.16;4971473;28;20239;-64
2021/12/24 09:52:49;;;;;;;17.53;9.50;;;;;;;9.25;89.25;99738.31;4953648;28;20566;-65
2021/12/24 09:55:19;;;;;;;15.70;9.20;;;;;;;9.28;88.51;99732.72;4973735;28;20238;-66
2021/12/24 09:57:47;;;;;;;19.20;9.40;;;;;;;9.20;89.50;99735.34;4971427;28;20239;-66
2021/12/24 10:00:19;;;;;;;16.53;9.00;;;;;;;9.25;89.61;99737.50;4972128;28;20649;-65
2021/12/24 10:02:50;;;;;;;16.70;8.73;;;;;;;9.26;89.31;99744.44;4970885;28;20282;-66
2021/12/24 10:05:34;;;;;;;17.67;9.73;;;;;;;9.27;88.98;99736.34;4970780;28;20211;-66
2021/12/24 10:08:17;;;;;;;14.40;8.63;;;;;;;9.23;89.16;99740.31;4973007;28;20251;-66
2021/12/24 10:10:47;;;;;;;16.80;8.67;;;;;;;9.17;89.63;99743.56;4972921;28;20713;-65
2021/12/24 10:13:41;;;;;;;16.03;9.43;;;;;;;9.18;90.18;99745.22;4970431;28;20231;-64
2021/12/24 10:16:13;;;;;;;17.53;8.27;;;;;;;9.31;88.83;99737.72;4967181;28;20210;-64
2021/12/24 10:18:45;;;;;;;13.80;8.33;;;;;;;9.31;88.40;99735.06;4971296;28;20215;-65
2021/12/24 10:21:15;;;;;;;13.33;8.10;;;;;;;9.29;88.70;99744.97;4973112;28;20258;-65
2021/12/24 10:23:55;;;;;;;15.80;8.50;;;;;;;9.22;89.42;99743.94;4971966;28;20213;-65
2021/12/24 10:26:26;;;;;;;18.03;8.93;;;;;;;9.31;88.71;99732.44;4972417;28;20246;-65
2021/12/24 10:29:05;;;;;;;17.03;8.97;;;;;;;9.39;88.29;99728.97;4970628;28;20364;-66
2021/12/24 10:31:44;;;;;;;18.50;8.47;;;;;;;9.36;87.92;99724.00;4971153;28;20222;-66
2021/12/24 10:34:34;;;;;;;15.90;7.77;;;;;;;9.30;89.06;99732.56;4969809;28;20223;-65
2021/12/24 10:37:15;;;;;;;15.70;8.20;;;;;;;9.40;88.00;99720.91;4964821;28;20244;-65
2021/12/24 10:39:45;;;;;;;14.90;8.23;;;;;;;9.32;89.00;99723.47;4971029;28;20529;-65
2021/12/24 10:42:23;;;;;;;13.03;7.27;;;;;;;9.33;89.04;99719.00;4971641;28;20302;-65
2021/12/24 10:44:52;;;;;;;14.40;7.70;;;;;;;9.30;88.79;99708.75;4970784;28;20297;-65
2021/12/24 10:47:25;;;;;;;17.67;8.30;;;;;;;9.23;89.90;99711.22;4969546;28;20312;-65
2021/12/24 10:50:04;;;;;;;13.43;7.77;;;;;;;9.26;89.55;99704.75;4971738;28;20259;-65
2021/12/24 10:52:56;;;;;;;14.37;7.90;;;;;;;9.22;89.46;99701.63;4969970;28;20233;-65
2021/12/24 10:55:26;;;;;;;14.43;7.07;;;;;;;9.07;90.92;99704.00;4971825;28;20238;-65
2021/12/24 10:57:56;;;;;;;14.00;7.00;;;;;;;9.10;90.78;99694.94;4955295;28;20216;-64
2021/12/24 11:00:27;;;;;;;15.97;7.23;;;;;;;9.18;90.60;99684.41;4971036;28;20254;-65
2021/12/24 11:02:58;;;;;;;13.37;8.23;;;;;;;9.27;89.51;99683.44;4969717;28;20211;-66
2021/12/24 11:05:30;;;;;;;12.97;7.43;;;;;;;9.31;89.01;99665.44;4970704;28;20215;-65
2021/12/24 11:07:59;;;;;;;15.07;6.93;;;;;;;9.27;89.99;99672.88;4973216;28;20652;-65
2021/12/24 11:10:30;;;;;;;10.07;6.70;;;;;;;9.38;87.96;99669.94;4956159;28;20322;-65
2021/12/24 11:13:02;;;;;;;11.53;6.63;;;;;;;9.33;89.19;99672.22;4971238;28;20329;-65
2021/12/24 11:15:33;;;;;;;16.87;7.20;;;;;;;9.36;88.15;99687.78;4967271;28;20222;-64
2021/12/24 11:18:04;;;;;;;13.43;7.07;;;;;;;9.34;88.61;99673.88;4971542;28;20223;-64
2021/12/24 11:20:33;;;;;;;12.93;6.83;;;;;;;9.15;90.80;99671.47;4969393;28;20303;-65
2021/12/24 11:23:09;;;;;;;10.20;6.47;;;;;;;9.18;90.54;99668.53;4965575;28;20208;-65
2021/12/24 11:25:39;;;;;;;13.73;7.20;;;;;;;9.30;89.33;99663.78;4971558;28;20330;-64
2021/12/24 11:28:08;;;;;;;14.30;6.77;;;;;;;9.31;89.19;99666.28;4973052;28;20226;-66
2021/12/24 11:30:40;;;;;;;10.87;6.50;;;;;;;9.14;90.59;99675.13;4970822;28;20223;-65
2021/12/24 11:33:13;;;;;;;9.70;6.43;;;;;;;9.33;89.06;99674.88;4969895;28;20223;-66
2021/12/24 11:35:41;;;;;;;14.27;6.63;;;;;;;9.35;88.75;99678.19;4969915;28;20215;-65
2021/12/24 11:38:14;;;;;;;10.10;5.90;;;;;;;9.44;87.87;99671.09;4955184;28;20223;-66
2021/12/24 11:40:43;;;;;;;13.27;6.20;;;;;;;9.41;88.06;99672.25;4970607;28;20731;-65
2021/12/24 11:43:15;;;;;;;9.07;6.20;;;;;;;9.39;88.21;99676.06;4969886;28;20307;-66
2021/12/24 11:45:43;;;;;;;11.50;6.33;;;;;;;9.38;88.31;99669.94;4969639;28;20302;-65
2021/12/24 11:48:12;;;;;;;10.37;6.20;;;;;;;9.32;89.78;99667.91;4969894;28;21527;-65
2021/12/24 11:50:43;;;;;;;10.57;6.03;;;;;;;9.37;88.92;99656.88;4971826;28;20250;-66
2021/12/24 11:53:15;;;;;;;12.67;5.87;;;;;;;9.29;90.12;99655.03;4971785;28;20230;-65
2021/12/24 11:55:48;;;;;;;8.67;5.67;;;;;;;9.52;87.51;99639.38;4969959;28;20225;-64
2021/12/24 11:58:18;;;;;;;11.60;4.97;;;;;;;9.56;87.33;99635.44;4970927;28;20218;-65
2021/12/24 12:00:49;;;;;;;7.83;5.10;;;;;;;9.48;87.88;99631.94;4968798;28;20243;-66
2021/12/24 12:03:35;;;;;;;9.30;4.90;;;;;;;9.52;87.48;99633.25;4975851;28;20343;-65
2021/12/24 12:06:06;;;;;;;7.90;4.43;;;;;;;9.56;86.77;99629.31;4955082;28;20670;-65
2021/12/24 12:08:40;;;;;;;8.37;4.70;;;;;;;9.57;86.69;99625.69;4971521;28;20676;-65
2021/12/24 12:11:18;;;;;;;7.67;4.20;;;;;;;9.63;85.47;99630.31;4972023;28;20211;-65
2021/12/24 12:13:49;;;;;;;8.77;4.47;;;;;;;9.69;84.76;99624.34;4969469;28;20240;-65
2021/12/24 12:16:19;;;;;;;7.60;4.50;;;;;;;9.67;84.71;99631.66;4974682;28;20602;-65
2021/12/24 12:19:01;;;;;;;8.70;4.30;;;;;;;9.72;83.96;99618.75;4975002;28;20716;-66
2021/12/24 12:21:38;;;;;;;8.63;4.43;;;;;;;9.71;84.13;99617.09;4974999;28;20221;-66
2021/12/24 12:27:02;;;;;;;8.07;4.60;;;;;;;9.55;88.38;99606.47;4973148;28;20244;-66
2021/12/24 12:29:33;;;;;;;6.07;3.60;;;;;;;9.70;85.69;99613.59;4974396;28;20239;-65
2021/12/24 12:32:25;;;;;;;6.53;3.40;;;;;;;9.76;85.21;99609.50;4973108;28;20682;-65
2021/12/24 12:35:04;;;;;;;4.97;3.20;;;;;;;9.79;84.54;99593.28;4972611;28;20232;-66
2021/12/24 12:37:43;;;;;;;6.47;3.27;;;;;;;9.81;86.14;99594.78;4975689;28;20251;-65
2021/12/24 12:40:30;;;;;;;5.03;3.23;;;;;;;9.83;85.72;99594.59;4959031;28;20760;-65
2021/12/24 12:43:05;;;;;;;5.50;3.77;;;;;;;9.89;84.38;99607.19;4972816;28;20212;-64
2021/12/24 12:46:00;;;;;;;6.73;3.70;;;;;;;9.84;84.82;99606.88;4974323;28;20226;-64
2021/12/24 12:48:49;;;;;;;7.47;3.33;;;;;;;9.80;85.30;99613.47;4973072;28;20226;-65
2021/12/24 12:51:20;;;;;;;6.83;3.67;;;;;;;9.74;86.99;99607.00;4974620;28;20222;-66
2021/12/24 12:53:51;;;;;;;5.00;2.90;;;;;;;9.76;86.89;99597.06;4972684;28;20792;-65
2021/12/24 12:56:22;;;;;;;5.47;2.10;;;;;;;9.74;87.33;99596.44;4974850;28;20224;-65
2021/12/24 12:58:57;;;;;;;3.27;2.17;;;;;;;9.76;86.81;99597.06;4957167;28;20297;-66
2021/12/24 13:01:26;;;;;;;5.90;2.70;;;;;;;9.66;88.38;99596.41;4974170;28;20304;-66
2021/12/24 13:04:11;;;;;;;4.30;2.53;;;;;;;9.74;87.55;99583.19;4972589;28;20211;-65